Time;durP1;ratioP1;P1;durP2;ratioP2;P2;SDS_P1;SDS_P2;PMS_P1;PMS_P2;Temp;Humidity;BMP_temperature;BMP_pressure;BME280_temperature;BME280_humidity;BME280_pressure;Samples;Min_cycle;Max_cycle;Signal;HPM_P1;HPM_P2
2022/11/14 00:02:04;;;;;;;7.88;3.97;;;;;;;;;;5074211;28;20100;-42
2022/11/14 00:04:30;;;;;;;7.25;4.28;;;;;;;;;;5067040;28;20090;-43
2022/11/14 00:06:56;;;;;;;6.65;3.53;;;;;;;;;;5068004;28;20487;-42
2022/11/14 00:09:28;;;;;;;8.82;4.00;;;;;;;;;;5049301;28;20050;-42
2022/11/14 00:11:55;;;;;;;7.72;4.15;;;;;;;;;;5076114;28;20036;-42
2022/11/14 00:14:21;;;;;;;7.65;3.22;;;;;;;;;;5086303;28;20099;-42
2022/11/14 00:16:47;;;;;;;6.90;3.30;;;;;;;;;;5086175;28;20442;-42
2022/11/14 00:19:13;;;;;;;7.20;3.83;;;;;;;;;;5087497;28;20024;-42
2022/11/14 00:21:39;;;;;;;6.13;3.63;;;;;;;;;;5083928;28;20411;-43
2022/11/14 00:24:05;;;;;;;8.23;3.70;;;;;;;;;;5069384;28;20028;-42
2022/11/14 00:26:31;;;;;;;5.40;3.10;;;;;;;;;;5087044;28;20036;-42
2022/11/14 00:28:57;;;;;;;6.53;3.78;;;;;;;;;;5087876;28;20606;-42
2022/11/14 00:31:23;;;;;;;5.40;3.30;;;;;;;;;;5086269;28;20073;-42
2022/11/14 00:33:49;;;;;;;5.93;3.10;;;;;;;;;;5086991;28;20028;-42
2022/11/14 00:36:15;;;;;;;10.52;3.90;;;;;;;;;;5073032;28;20031;-42
2022/11/14 00:38:42;;;;;;;6.45;3.30;;;;;;;;;;5070883;28;20032;-42
2022/11/14 00:41:08;;;;;;;7.70;3.83;;;;;;;;;;5070237;28;20555;-42
2022/11/14 00:43:34;;;;;;;9.43;3.67;;;;;;;;;;5091837;28;20106;-41
2022/11/14 00:46:00;;;;;;;5.22;3.10;;;;;;;;;;5096056;28;20379;-41
2022/11/14 00:48:26;;;;;;;8.38;3.20;;;;;;;;;;5070451;28;20044;-41
2022/11/14 00:50:52;;;;;;;7.40;3.28;;;;;;;;;;5069149;28;20017;-41
2022/11/14 00:53:18;;;;;;;6.72;3.78;;;;;;;;;;5069061;28;20039;-41
2022/11/14 00:55:44;;;;;;;6.55;3.38;;;;;;;;;;5079046;28;20078;-42
2022/11/14 06:02:12;;;;;;;7.20;3.15;;;;;;;;;;5074558;28;20063;-41
2022/11/14 06:04:38;;;;;;;4.40;2.80;;;;;;;;;;5106693;28;20031;-41
2022/11/14 06:07:04;;;;;;;6.13;2.85;;;;;;;;;;5110511;28;20021;-42
2022/11/14 06:09:30;;;;;;;5.40;2.53;;;;;;;;;;5093122;28;20035;-41
2022/11/14 06:11:56;;;;;;;6.43;3.35;;;;;;;;;;5092817;28;20577;-41
2022/11/14 06:14:22;;;;;;;4.50;3.08;;;;;;;;;;5091978;28;20075;-41
2022/11/14 06:16:48;;;;;;;4.03;2.45;;;;;;;;;;5092935;28;20495;-42
2022/11/14 06:19:14;;;;;;;4.65;2.67;;;;;;;;;;5092845;28;20043;-41
2022/11/14 06:21:40;;;;;;;5.20;3.13;;;;;;;;;;5085257;28;20107;-41
2022/11/14 06:24:06;;;;;;;4.45;2.47;;;;;;;;;;5084666;28;20107;-41
2022/11/14 06:26:32;;;;;;;6.65;2.72;;;;;;;;;;5092627;28;20028;-41
2022/11/14 06:28:59;;;;;;;3.97;2.40;;;;;;;;;;5083963;28;20037;-41
2022/11/14 06:31:26;;;;;;;5.82;2.80;;;;;;;;;;5087219;28;20024;-41
2022/11/14 06:33:52;;;;;;;3.45;2.55;;;;;;;;;;5078547;28;20020;-41
2022/11/14 06:36:18;;;;;;;4.38;2.50;;;;;;;;;;5093185;28;20035;-41
2022/11/14 06:38:44;;;;;;;8.00;3.15;;;;;;;;;;5090210;28;20035;-41
2022/11/14 06:41:15;;;;;;;7.90;2.83;;;;;;;;;;5092826;28;20069;-41
2022/11/14 06:43:42;;;;;;;7.20;3.30;;;;;;;;;;5089824;28;20039;-41
2022/11/14 06:46:09;;;;;;;5.57;2.58;;;;;;;;;;5086055;28;20534;-41
2022/11/14 06:48:35;;;;;;;5.40;2.72;;;;;;;;;;5078362;28;20103;-42
2022/11/14 06:51:01;;;;;;;6.00;3.03;;;;;;;;;;5080748;28;20029;-41
2022/11/14 06:53:28;;;;;;;5.20;2.67;;;;;;;;;;5071336;28;20051;-41
2022/11/14 06:55:55;;;;;;;7.63;2.97;;;;;;;;;;5084801;28;20688;-41
2022/11/14 06:58:21;;;;;;;3.97;2.72;;;;;;;;;;5089523;28;20056;-41
2022/11/14 07:00:47;;;;;;;4.93;3.05;;;;;;;;;;5088779;28;20414;-42
2022/11/14 07:03:13;;;;;;;5.55;3.08;;;;;;;;;;5089622;28;20039;-41
2022/11/14 07:05:39;;;;;;;5.75;2.90;;;;;;;;;;5087851;28;20518;-41
2022/11/14 07:08:05;;;;;;;4.88;2.67;;;;;;;;;;5076997;28;20039;-41
2022/11/14 07:10:31;;;;;;;5.55;3.03;;;;;;;;;;5070024;28;20021;-42
2022/11/14 07:12:57;;;;;;;5.43;3.03;;;;;;;;;;5068911;28;20038;-41
2022/11/14 07:15:23;;;;;;;6.15;3.03;;;;;;;;;;5075994;28;20035;-41
2022/11/14 07:17:49;;;;;;;5.80;3.13;;;;;;;;;;5089822;28;20376;-41
2022/11/14 07:20:17;;;;;;;4.43;2.55;;;;;;;;;;5089362;28;20032;-41
2022/11/14 07:22:47;;;;;;;5.10;2.80;;;;;;;;;;5082706;28;20036;-42
2022/11/14 07:25:13;;;;;;;6.28;3.40;;;;;;;;;;5088422;28;20449;-42
2022/11/14 07:27:39;;;;;;;6.65;3.45;;;;;;;;;;5087308;28;20103;-41
2022/11/14 07:30:06;;;;;;;5.47;3.10;;;;;;;;;;5082457;28;20036;-41
2022/11/14 07:32:32;;;;;;;5.35;2.80;;;;;;;;;;5089523;28;20024;-41
2022/11/14 07:34:58;;;;;;;4.90;3.08;;;;;;;;;;5083590;28;20028;-41
2022/11/14 07:37:24;;;;;;;4.60;3.00;;;;;;;;;;5090001;28;20491;-41
2022/11/14 07:39:50;;;;;;;5.00;3.65;;;;;;;;;;5079434;28;20031;-41
2022/11/14 07:42:16;;;;;;;3.92;2.63;;;;;;;;;;5106752;28;20043;-41
2022/11/14 07:44:42;;;;;;;5.32;3.08;;;;;;;;;;5082604;28;20086;-41
2022/11/14 07:47:08;;;;;;;3.78;2.58;;;;;;;;;;5086322;28;20040;-42
2022/11/14 07:49:34;;;;;;;4.95;2.92;;;;;;;;;;5089829;28;20063;-41
2022/11/14 07:52:00;;;;;;;8.10;2.92;;;;;;;;;;5089892;28;20024;-42
2022/11/14 07:54:26;;;;;;;4.75;3.03;;;;;;;;;;5087813;28;20617;-41
2022/11/14 07:56:52;;;;;;;4.50;2.17;;;;;;;;;;5089763;28;20032;-42
2022/11/14 07:59:18;;;;;;;6.00;2.97;;;;;;;;;;5087786;28;20032;-41
2022/11/14 08:01:45;;;;;;;4.93;2.17;;;;;;;;;;5087590;28;20108;-42
2022/11/14 08:04:11;;;;;;;3.80;2.78;;;;;;;;;;5079745;28;20039;-41
2022/11/14 08:06:37;;;;;;;4.15;2.70;;;;;;;;;;5079625;28;20093;-41
2022/11/14 08:09:03;;;;;;;3.85;2.30;;;;;;;;;;5079472;28;20035;-41
2022/11/14 08:11:48;;;;;;;4.63;2.30;;;;;;;;;;5086539;28;20038;-42
2022/11/14 08:14:14;;;;;;;4.55;2.80;;;;;;;;;;5086688;28;20027;-43
2022/11/14 08:16:40;;;;;;;4.22;2.58;;;;;;;;;;5087368;28;20405;-41
2022/11/14 08:19:06;;;;;;;4.50;2.67;;;;;;;;;;5088339;28;20046;-41
2022/11/14 08:21:32;;;;;;;3.92;2.65;;;;;;;;;;5087734;28;20413;-42
2022/11/14 08:23:58;;;;;;;5.03;2.65;;;;;;;;;;5085795;28;20593;-41
2022/11/14 08:26:25;;;;;;;5.18;2.70;;;;;;;;;;5087380;28;20110;-41
2022/11/14 08:28:54;;;;;;;4.63;2.60;;;;;;;;;;5087135;28;20380;-42
2022/11/14 08:31:21;;;;;;;3.75;2.70;;;;;;;;;;5087653;28;20402;-41
2022/11/14 08:33:49;;;;;;;5.97;2.38;;;;;;;;;;5087454;28;20103;-41
2022/11/14 08:36:15;;;;;;;3.97;2.60;;;;;;;;;;5087383;28;20021;-41
2022/11/14 08:38:41;;;;;;;4.45;2.72;;;;;;;;;;5088326;28;20629;-41
2022/11/14 08:41:07;;;;;;;3.70;2.70;;;;;;;;;;5092265;28;20040;-41
2022/11/14 08:43:33;;;;;;;5.63;3.20;;;;;;;;;;5072679;28;20453;-41
2022/11/14 08:46:00;;;;;;;3.20;2.58;;;;;;;;;;5090695;28;20046;-41
2022/11/14 08:48:26;;;;;;;3.53;2.58;;;;;;;;;;5075997;28;20028;-42
2022/11/14 08:50:53;;;;;;;5.78;2.72;;;;;;;;;;5073098;28;20028;-41
2022/11/14 08:53:19;;;;;;;4.07;2.30;;;;;;;;;;5077366;28;20027;-41
2022/11/14 08:55:45;;;;;;;4.43;2.60;;;;;;;;;;5072743;28;20036;-41
2022/11/14 08:58:11;;;;;;;3.55;2.80;;;;;;;;;;5094483;28;20074;-41
2022/11/14 09:00:37;;;;;;;3.75;2.35;;;;;;;;;;5107104;28;20032;-41
2022/11/14 09:03:12;;;;;;;4.50;3.05;;;;;;;;;;5091220;28;20495;-41
2022/11/14 09:05:39;;;;;;;6.30;2.80;;;;;;;;;;5090403;28;20035;-41
2022/11/14 09:08:05;;;;;;;4.38;2.53;;;;;;;;;;5111155;28;20034;-41
2022/11/14 09:10:31;;;;;;;3.88;2.90;;;;;;;;;;5092823;28;20024;-41
2022/11/14 09:12:59;;;;;;;3.92;2.58;;;;;;;;;;5089797;28;20077;-41
2022/11/14 09:15:26;;;;;;;4.88;2.90;;;;;;;;;;5090180;28;20501;-40
2022/11/14 09:17:53;;;;;;;4.60;2.70;;;;;;;;;;5085158;28;20025;-41
2022/11/14 09:20:19;;;;;;;6.07;3.00;;;;;;;;;;5075239;28;20056;-41
2022/11/14 09:22:45;;;;;;;4.55;2.78;;;;;;;;;;5077330;28;20099;-41
2022/11/14 09:25:12;;;;;;;3.70;2.45;;;;;;;;;;5074691;28;20466;-41
2022/11/14 09:27:38;;;;;;;4.88;2.70;;;;;;;;;;5075047;28;20067;-41
2022/11/14 09:30:04;;;;;;;3.35;2.15;;;;;;;;;;5087844;28;20024;-42
2022/11/14 09:32:30;;;;;;;3.50;2.58;;;;;;;;;;5089985;28;20020;-42
2022/11/14 09:34:56;;;;;;;3.03;2.35;;;;;;;;;;5089843;28;20070;-41
2022/11/14 09:37:22;;;;;;;4.50;2.40;;;;;;;;;;5089873;28;20020;-41
2022/11/14 09:39:48;;;;;;;2.88;2.03;;;;;;;;;;5089504;28;20032;-42
2022/11/14 09:42:20;;;;;;;3.45;2.50;;;;;;;;;;5089700;28;20641;-41
2022/11/14 09:44:52;;;;;;;4.90;2.95;;;;;;;;;;5089703;28;20052;-41
2022/11/14 09:47:21;;;;;;;3.85;2.83;;;;;;;;;;5089565;28;20154;-41
2022/11/14 09:49:48;;;;;;;3.80;2.65;;;;;;;;;;5088907;28;20055;-41
2022/11/14 09:52:33;;;;;;;4.05;2.20;;;;;;;;;;5089597;28;20020;-41
2022/11/14 09:55:02;;;;;;;2.28;1.75;;;;;;;;;;5089452;28;20501;-42
2022/11/14 09:57:29;;;;;;;3.47;2.22;;;;;;;;;;5089351;28;20024;-41
2022/11/14 09:59:55;;;;;;;3.13;2.03;;;;;;;;;;5087995;28;20032;-41
2022/11/14 10:02:24;;;;;;;2.65;2.10;;;;;;;;;;5069998;28;20028;-41
2022/11/14 10:05:09;;;;;;;3.20;2.20;;;;;;;;;;5069600;28;20115;-41
2022/11/14 10:07:44;;;;;;;3.50;2.08;;;;;;;;;;5069034;28;20459;-41
2022/11/14 10:10:23;;;;;;;3.10;2.28;;;;;;;;;;5068691;28;20047;-41
2022/11/14 10:12:57;;;;;;;2.80;2.03;;;;;;;;;;5069544;28;20021;-41
2022/11/14 10:15:29;;;;;;;2.97;2.10;;;;;;;;;;5069135;28;20082;-41
2022/11/14 10:18:11;;;;;;;4.03;2.33;;;;;;;;;;5068844;28;20059;-41
2022/11/14 10:20:40;;;;;;;4.63;2.30;;;;;;;;;;5068993;28;20032;-41
2022/11/14 10:23:45;;;;;;;3.63;2.15;;;;;;;;;;5068704;28;20059;-42
2022/11/14 10:26:28;;;;;;;2.92;2.00;;;;;;;;;;4967180;28;20031;-41
2022/11/14 10:29:02;;;;;;;4.93;2.33;;;;;;;;;;4967346;28;20567;-42
2022/11/14 10:31:51;;;;;;;2.72;2.10;;;;;;;;;;5032681;28;20047;-41
2022/11/14 10:34:20;;;;;;;6.15;2.65;;;;;;;;;;5068856;28;20016;-41
2022/11/14 10:36:57;;;;;;;4.35;2.40;;;;;;;;;;5068363;28;20040;-41
2022/11/14 10:39:23;;;;;;;4.80;2.22;;;;;;;;;;5068600;28;20027;-41
2022/11/14 10:41:51;;;;;;;3.63;2.08;;;;;;;;;;5069040;28;20039;-41
2022/11/14 10:44:24;;;;;;;3.17;2.22;;;;;;;;;;5070646;28;20216;-41
2022/11/14 10:46:53;;;;;;;4.05;2.67;;;;;;;;;;5084799;28;20032;-42
2022/11/14 10:49:23;;;;;;;3.00;2.10;;;;;;;;;;5076116;28;20082;-41
2022/11/14 10:51:54;;;;;;;4.35;2.25;;;;;;;;;;5085441;28;20028;-43
2022/11/14 10:54:37;;;;;;;4.15;2.38;;;;;;;;;;5081330;28;20024;-41
2022/11/14 10:57:13;;;;;;;4.03;2.33;;;;;;;;;;5088952;28;20027;-42
2022/11/14 10:59:39;;;;;;;3.10;2.10;;;;;;;;;;5076310;28;20046;-41
2022/11/14 11:02:05;;;;;;;4.38;1.90;;;;;;;;;;5075451;28;20032;-41
2022/11/14 11:04:33;;;;;;;3.85;2.45;;;;;;;;;;5072975;28;20094;-42
2022/11/14 11:07:08;;;;;;;4.88;2.42;;;;;;;;;;5070135;28;20040;-41
2022/11/14 11:12:21;;;;;;;5.03;2.20;;;;;;;;;;5073011;28;20062;-41
2022/11/14 11:14:49;;;;;;;3.88;2.50;;;;;;;;;;5084157;28;20073;-42
2022/11/14 11:17:18;;;;;;;4.35;2.70;;;;;;;;;;5075659;28;20027;-41
2022/11/14 11:19:46;;;;;;;3.70;2.45;;;;;;;;;;5088717;28;20051;-41
2022/11/14 11:22:28;;;;;;;4.53;2.17;;;;;;;;;;5070043;28;20028;-42
2022/11/14 11:24:54;;;;;;;5.72;2.70;;;;;;;;;;5078765;28;20444;-41
2022/11/14 11:27:25;;;;;;;5.40;2.53;;;;;;;;;;5082285;28;20392;-41
2022/11/14 11:30:10;;;;;;;3.35;2.50;;;;;;;;;;5080208;28;20522;-41
2022/11/14 11:32:36;;;;;;;3.90;2.22;;;;;;;;;;5083420;28;20024;-41
2022/11/14 11:35:03;;;;;;;5.03;2.72;;;;;;;;;;5085626;28;20442;-41
2022/11/14 11:37:53;;;;;;;5.18;2.03;;;;;;;;;;5079303;28;20024;-41
2022/11/14 11:40:21;;;;;;;6.95;2.35;;;;;;;;;;5084455;28;20066;-41
2022/11/14 11:43:13;;;;;;;4.03;2.58;;;;;;;;;;5079118;28;20065;-41
2022/11/14 11:45:40;;;;;;;4.50;2.47;;;;;;;;;;5072889;28;20052;-41
2022/11/14 11:48:15;;;;;;;2.65;2.20;;;;;;;;;;5066717;28;20056;-41
2022/11/14 11:50:40;;;;;;;;;;;;;;;;;;5069321;28;20032;-41
2022/11/14 11:53:20;;;;;;;4.47;2.60;;;;;;;;;;5068237;28;19916;-41
2022/11/14 11:55:48;;;;;;;3.65;2.40;;;;;;;;;;5074496;28;20056;-41
2022/11/14 11:58:25;;;;;;;3.65;2.30;;;;;;;;;;5070727;28;20074;-42
2022/11/14 12:00:54;;;;;;;3.15;2.20;;;;;;;;;;5085653;28;20024;-41
2022/11/14 12:03:20;;;;;;;4.00;2.40;;;;;;;;;;5077746;28;20031;-41
2022/11/14 12:05:57;;;;;;;3.00;1.90;;;;;;;;;;5064683;28;20015;-42
2022/11/14 12:08:46;;;;;;;3.20;2.13;;;;;;;;;;5049759;28;20079;-41
2022/11/14 12:11:21;;;;;;;3.13;2.33;;;;;;;;;;5066379;28;20060;-41
2022/11/14 12:13:54;;;;;;;4.07;2.30;;;;;;;;;;5065725;28;20056;-41
2022/11/14 12:16:23;;;;;;;4.45;2.63;;;;;;;;;;5051049;28;20031;-41
2022/11/14 12:18:56;;;;;;;5.22;2.60;;;;;;;;;;5070855;28;20053;-42
2022/11/14 12:21:31;;;;;;;3.63;2.88;;;;;;;;;;5070569;28;20024;-42
2022/11/14 12:24:08;;;;;;;3.75;2.53;;;;;;;;;;5077641;28;20040;-42
2022/11/14 12:26:35;;;;;;;3.38;2.25;;;;;;;;;;5069499;28;20122;-42
2022/11/14 12:29:16;;;;;;;4.68;2.28;;;;;;;;;;5074093;28;20407;-42
2022/11/14 12:31:43;;;;;;;3.88;2.35;;;;;;;;;;5045262;28;20024;-42
2022/11/14 12:34:19;;;;;;;4.63;2.47;;;;;;;;;;5067516;28;20508;-41
2022/11/14 12:36:45;;;;;;;3.53;2.30;;;;;;;;;;5069047;28;20495;-42
2022/11/14 12:39:23;;;;;;;2.83;2.20;;;;;;;;;;5078243;28;20039;-42
2022/11/14 12:41:49;;;;;;;3.38;2.17;;;;;;;;;;5064216;28;20040;-42
2022/11/14 12:44:31;;;;;;;3.28;2.20;;;;;;;;;;5068627;28;20101;-41
2022/11/14 12:47:03;;;;;;;3.30;2.10;;;;;;;;;;5077438;28;20067;-42
2022/11/14 12:49:58;;;;;;;5.75;2.30;;;;;;;;;;5063280;28;20024;-42
2022/11/14 12:52:54;;;;;;;3.83;2.60;;;;;;;;;;5060971;28;20058;-41
2022/11/14 12:55:23;;;;;;;3.97;2.05;;;;;;;;;;5059300;28;20044;-41
2022/11/14 12:57:59;;;;;;;2.78;2.10;;;;;;;;;;5073589;28;20028;-42
2022/11/14 13:00:25;;;;;;;4.35;2.67;;;;;;;;;;5077125;28;20700;-41
2022/11/14 13:02:57;;;;;;;3.60;2.22;;;;;;;;;;5075399;28;20032;-42
2022/11/14 13:05:29;;;;;;;3.72;2.35;;;;;;;;;;5069378;28;20139;-42
2022/11/14 13:08:07;;;;;;;6.32;2.88;;;;;;;;;;5074276;28;20246;-42
2022/11/14 13:10:37;;;;;;;3.97;1.92;;;;;;;;;;5075298;28;20115;-42
2022/11/14 13:22:02;;;;;;;3.15;2.30;;;;;;;;;;5072445;28;20035;-42
2022/11/14 13:24:49;;;;;;;3.35;2.38;;;;;;;;;;5070677;28;20028;-42
2022/11/14 13:27:26;;;;;;;2.65;2.05;;;;;;;;;;5079946;28;20028;-42
2022/11/14 13:29:53;;;;;;;3.63;2.38;;;;;;;;;;5077165;28;20024;-42
2022/11/14 13:32:37;;;;;;;2.80;2.13;;;;;;;;;;5075440;28;20516;-41
2022/11/14 13:35:04;;;;;;;2.50;2.10;;;;;;;;;;5080265;28;20027;-42
2022/11/14 13:37:30;;;;;;;3.28;2.00;;;;;;;;;;5068133;28;20024;-42
2022/11/14 13:40:07;;;;;;;3.35;2.10;;;;;;;;;;5081046;28;20140;-41
2022/11/14 13:42:53;;;;;;;3.40;2.10;;;;;;;;;;5078790;28;20036;-41
2022/11/14 13:45:25;;;;;;;2.42;1.88;;;;;;;;;;5075896;28;20039;-42
2022/11/14 13:47:57;;;;;;;3.63;2.00;;;;;;;;;;5079936;28;20190;-42
2022/11/14 13:50:35;;;;;;;3.92;2.40;;;;;;;;;;5072326;28;20544;-42
2022/11/14 13:53:02;;;;;;;3.05;2.00;;;;;;;;;;5084628;28;20395;-42
2022/11/14 13:55:40;;;;;;;2.67;2.00;;;;;;;;;;5084969;28;20024;-42
2022/11/14 13:58:15;;;;;;;6.10;2.08;;;;;;;;;;5071988;28;20035;-42
2022/11/14 14:01:05;;;;;;;3.03;2.05;;;;;;;;;;5086681;28;20031;-42
2022/11/14 14:03:31;;;;;;;3.97;2.28;;;;;;;;;;5055069;28;20044;-42
2022/11/14 14:06:16;;;;;;;3.97;2.50;;;;;;;;;;5083047;28;20031;-42
2022/11/14 14:08:42;;;;;;;3.80;2.47;;;;;;;;;;5058969;28;20047;-42
2022/11/14 14:11:08;;;;;;;3.58;2.20;;;;;;;;;;5086256;28;20032;-43
2022/11/14 14:13:54;;;;;;;2.80;2.20;;;;;;;;;;5075421;28;20031;-42
2022/11/14 14:16:39;;;;;;;4.72;2.63;;;;;;;;;;5070605;28;20031;-42
2022/11/14 14:19:10;;;;;;;7.55;4.47;;;;;;;;;;5057830;28;20064;-42
2022/11/14 14:21:58;;;;;;;9.15;5.90;;;;;;;;;;5084945;28;20028;-42
2022/11/14 14:24:27;;;;;;;8.98;5.28;;;;;;;;;;5066773;28;20082;-42
2022/11/14 14:27:11;;;;;;;9.43;6.60;;;;;;;;;;5061391;28;20037;-41
2022/11/14 14:29:46;;;;;;;6.47;4.38;;;;;;;;;;5062583;28;20039;-41
2022/11/14 14:32:13;;;;;;;5.15;3.65;;;;;;;;;;5059360;28;20025;-41
2022/11/14 14:34:40;;;;;;;5.25;3.10;;;;;;;;;;5060364;28;20033;-41
2022/11/14 14:37:17;;;;;;;3.47;2.40;;;;;;;;;;5064870;28;20027;-43
2022/11/14 14:39:54;;;;;;;3.03;2.10;;;;;;;;;;5067131;28;20032;-42
2022/11/14 14:42:21;;;;;;;2.20;1.88;;;;;;;;;;5059450;28;20052;-41
2022/11/14 14:44:48;;;;;;;4.13;2.45;;;;;;;;;;5060495;28;20024;-41
2022/11/14 14:47:27;;;;;;;2.35;2.05;;;;;;;;;;5058703;28;20024;-42
2022/11/14 14:49:53;;;;;;;3.45;2.17;;;;;;;;;;5057524;28;20144;-42
2022/11/14 14:52:39;;;;;;;4.20;3.10;;;;;;;;;;5056965;28;20240;-42
2022/11/14 14:55:07;;;;;;;3.42;2.67;;;;;;;;;;5066628;28;20097;-42
2022/11/14 14:57:33;;;;;;;4.25;2.40;;;;;;;;;;5059345;28;20040;-42
2022/11/14 15:00:01;;;;;;;2.53;1.80;;;;;;;;;;5058514;28;20038;-41
2022/11/14 15:02:28;;;;;;;1.92;1.48;;;;;;;;;;5058846;28;20095;-42
2022/11/14 15:04:55;;;;;;;2.17;1.58;;;;;;;;;;5059253;28;20036;-41
2022/11/14 15:07:23;;;;;;;3.03;1.95;;;;;;;;;;5057887;28;20024;-41
2022/11/14 15:09:57;;;;;;;2.15;1.40;;;;;;;;;;5066067;28;20032;-42
2022/11/14 15:12:24;;;;;;;1.27;1.17;;;;;;;;;;5080961;28;20024;-41
2022/11/14 15:14:52;;;;;;;1.63;1.20;;;;;;;;;;5090581;28;20024;-42
2022/11/14 15:17:18;;;;;;;3.42;1.73;;;;;;;;;;5108005;28;20050;-42
2022/11/14 15:19:45;;;;;;;2.33;1.73;;;;;;;;;;5092970;28;20120;-42
2022/11/14 15:22:14;;;;;;;3.90;1.98;;;;;;;;;;5068644;28;20175;-41
2022/11/14 15:24:40;;;;;;;2.70;1.90;;;;;;;;;;5069363;28;20028;-41
2022/11/14 15:27:19;;;;;;;3.28;2.08;;;;;;;;;;5085569;28;20028;-41
2022/11/14 15:29:46;;;;;;;2.15;1.73;;;;;;;;;;5087338;28;20542;-41
2022/11/14 15:32:23;;;;;;;2.42;1.75;;;;;;;;;;5072780;28;20052;-42
2022/11/14 15:35:08;;;;;;;1.48;1.35;;;;;;;;;;5106350;28;20027;-41
2022/11/14 15:37:34;;;;;;;2.00;1.17;;;;;;;;;;5099174;28;20020;-41
2022/11/14 15:40:17;;;;;;;1.58;1.30;;;;;;;;;;5086941;28;20071;-42
2022/11/14 15:42:43;;;;;;;1.75;1.42;;;;;;;;;;5085866;28;20491;-42
2022/11/14 15:45:25;;;;;;;1.40;1.10;;;;;;;;;;5067883;28;20036;-42
2022/11/14 15:47:59;;;;;;;1.38;1.23;;;;;;;;;;5086343;28;20556;-41
2022/11/14 15:50:27;;;;;;;1.63;1.10;;;;;;;;;;5073394;28;20033;-41
2022/11/14 15:52:56;;;;;;;1.65;1.30;;;;;;;;;;5069526;28;20062;-41
2022/11/14 15:55:23;;;;;;;1.30;1.15;;;;;;;;;;5069426;28;20024;-42
2022/11/14 15:57:49;;;;;;;1.40;1.30;;;;;;;;;;5066497;28;20051;-41
2022/11/14 16:00:16;;;;;;;2.30;1.30;;;;;;;;;;5067363;28;20462;-41
2022/11/14 16:03:02;;;;;;;1.20;1.10;;;;;;;;;;5080941;28;20028;-41
2022/11/14 16:05:29;;;;;;;1.13;1.02;;;;;;;;;;5084022;28;20044;-42
2022/11/14 16:07:56;;;;;;;1.30;1.00;;;;;;;;;;5086502;28;20515;-41
2022/11/14 16:10:24;;;;;;;1.15;1.05;;;;;;;;;;5085011;28;20028;-41
2022/11/14 16:12:50;;;;;;;0.95;0.90;;;;;;;;;;5066368;28;20732;-41
2022/11/14 16:15:16;;;;;;;0.98;0.90;;;;;;;;;;5086756;28;20060;-41
2022/11/14 16:17:44;;;;;;;1.90;1.40;;;;;;;;;;5082022;28;20032;-42
2022/11/14 16:20:15;;;;;;;2.53;1.67;;;;;;;;;;5085863;28;20516;-41
2022/11/14 16:22:41;;;;;;;1.75;1.17;;;;;;;;;;5076964;28;20772;-41
2022/11/14 16:25:16;;;;;;;2.50;1.50;;;;;;;;;;5074446;28;20530;-41
2022/11/14 16:27:42;;;;;;;1.80;1.42;;;;;;;;;;5067162;28;20036;-42
2022/11/14 16:30:08;;;;;;;2.03;1.40;;;;;;;;;;5081614;28;20610;-42
2022/11/14 16:32:34;;;;;;;2.70;1.67;;;;;;;;;;5078297;28;20439;-41
2022/11/14 16:35:00;;;;;;;3.42;1.58;;;;;;;;;;5078270;28;20081;-41
2022/11/14 16:37:26;;;;;;;1.52;1.27;;;;;;;;;;5077966;28;20040;-42
2022/11/14 16:39:52;;;;;;;2.40;1.50;;;;;;;;;;5080192;28;20071;-41
2022/11/14 16:42:18;;;;;;;2.33;1.50;;;;;;;;;;5080822;28;20032;-41
2022/11/14 16:44:44;;;;;;;1.27;1.10;;;;;;;;;;5086899;28;20024;-41
2022/11/14 16:47:13;;;;;;;1.33;1.10;;;;;;;;;;5085734;28;20479;-41
2022/11/14 16:49:39;;;;;;;1.48;1.10;;;;;;;;;;5070090;28;20077;-41
2022/11/14 16:52:07;;;;;;;1.20;1.05;;;;;;;;;;5068134;28;20029;-41
2022/11/14 16:54:33;;;;;;;1.20;1.10;;;;;;;;;;5078111;28;20095;-41
2022/11/14 16:56:59;;;;;;;1.92;1.30;;;;;;;;;;5077128;28;20574;-41
2022/11/14 16:59:25;;;;;;;1.58;1.20;;;;;;;;;;5083109;28;20043;-41
2022/11/14 17:01:51;;;;;;;1.77;1.10;;;;;;;;;;5070963;28;20032;-41
2022/11/14 17:04:17;;;;;;;1.70;1.33;;;;;;;;;;5087991;28;20036;-41
2022/11/14 17:06:44;;;;;;;2.30;1.35;;;;;;;;;;5076067;28;20040;-41
2022/11/14 17:09:11;;;;;;;1.58;1.35;;;;;;;;;;5083830;28;20032;-41
2022/11/14 17:11:37;;;;;;;2.80;1.88;;;;;;;;;;5086648;28;20391;-41
2022/11/14 17:14:03;;;;;;;2.67;1.85;;;;;;;;;;5095668;28;20026;-41
2022/11/14 17:16:29;;;;;;;2.55;1.73;;;;;;;;;;5093284;28;20020;-41
2022/11/14 17:18:56;;;;;;;2.47;2.03;;;;;;;;;;5088980;28;20368;-41
2022/11/14 17:21:22;;;;;;;3.13;1.90;;;;;;;;;;5111347;28;20096;-41
2022/11/14 17:24:00;;;;;;;2.55;2.08;;;;;;;;;;5100737;28;20024;-41
2022/11/14 17:26:26;;;;;;;2.17;1.75;;;;;;;;;;5087037;28;20040;-41
2022/11/14 17:28:52;;;;;;;3.80;2.67;;;;;;;;;;5090654;28;20028;-41
2022/11/14 17:31:18;;;;;;;4.18;2.65;;;;;;;;;;5090937;28;20392;-41
2022/11/14 17:33:50;;;;;;;3.13;2.20;;;;;;;;;;5087482;28;20103;-41
2022/11/14 17:36:16;;;;;;;4.03;2.40;;;;;;;;;;5095047;28;20533;-41
2022/11/14 17:38:42;;;;;;;3.75;2.42;;;;;;;;;;5084579;28;20033;-41
2022/11/14 17:41:08;;;;;;;4.10;2.42;;;;;;;;;;5087060;28;20086;-41
2022/11/14 17:43:35;;;;;;;4.90;2.75;;;;;;;;;;5088730;28;20035;-41
2022/11/14 17:46:01;;;;;;;2.97;2.13;;;;;;;;;;5088476;28;20099;-42
2022/11/14 17:48:27;;;;;;;3.60;2.47;;;;;;;;;;5078447;28;20439;-42
2022/11/14 17:50:53;;;;;;;4.05;3.05;;;;;;;;;;5076738;28;20025;-41
2022/11/14 17:53:20;;;;;;;5.03;3.25;;;;;;;;;;5076046;28;20715;-42
2022/11/14 17:55:46;;;;;;;5.55;3.30;;;;;;;;;;5083777;28;20053;-42
2022/11/14 17:58:13;;;;;;;3.20;2.70;;;;;;;;;;5108378;28;20051;-42
2022/11/14 18:00:40;;;;;;;5.65;3.20;;;;;;;;;;5094729;28;20024;-42
2022/11/14 18:03:06;;;;;;;5.65;3.25;;;;;;;;;;5065870;28;20062;-42
2022/11/14 18:05:32;;;;;;;4.55;3.00;;;;;;;;;;5086038;28;20028;-42
2022/11/14 18:07:58;;;;;;;4.07;2.63;;;;;;;;;;5080565;28;20037;-42
2022/11/14 18:10:24;;;;;;;3.53;2.50;;;;;;;;;;5081262;28;20567;-42
2022/11/14 18:12:50;;;;;;;6.85;3.00;;;;;;;;;;5069788;28;20028;-42
2022/11/14 18:15:16;;;;;;;3.90;3.13;;;;;;;;;;5089615;28;20525;-42
2022/11/14 18:17:42;;;;;;;5.10;2.90;;;;;;;;;;5104673;28;20020;-42
2022/11/14 18:20:08;;;;;;;3.85;2.63;;;;;;;;;;5086204;28;20465;-42
2022/11/14 18:22:34;;;;;;;4.03;2.83;;;;;;;;;;5078829;28;20032;-42
2022/11/14 18:25:00;;;;;;;3.85;2.67;;;;;;;;;;5088884;28;20032;-44
2022/11/14 18:27:26;;;;;;;5.07;2.70;;;;;;;;;;5086560;28;20372;-42
2022/11/14 18:29:52;;;;;;;3.90;2.85;;;;;;;;;;5084623;28;20019;-41
2022/11/14 18:32:18;;;;;;;5.82;2.95;;;;;;;;;;5108302;28;20724;-41
2022/11/14 18:34:44;;;;;;;4.20;2.60;;;;;;;;;;5095577;28;20515;-41
2022/11/14 18:37:10;;;;;;;5.32;3.25;;;;;;;;;;5063572;28;20082;-41
2022/11/14 18:39:36;;;;;;;4.15;3.00;;;;;;;;;;5066029;28;20414;-41
2022/11/14 18:42:03;;;;;;;3.80;3.05;;;;;;;;;;5067045;28;20032;-41
2022/11/14 18:44:29;;;;;;;4.57;3.10;;;;;;;;;;5053992;28;20036;-42
2022/11/14 18:46:55;;;;;;;5.25;3.65;;;;;;;;;;5067144;28;20186;-41
2022/11/14 18:49:21;;;;;;;7.00;3.80;;;;;;;;;;5057076;28;20029;-42
2022/11/14 18:51:47;;;;;;;13.48;7.13;;;;;;;;;;5080060;28;20111;-41
2022/11/14 18:54:17;;;;;;;10.63;6.38;;;;;;;;;;5082677;28;20428;-42
2022/11/14 18:56:43;;;;;;;10.07;5.32;;;;;;;;;;5074476;28;20028;-42
2022/11/14 18:59:09;;;;;;;7.50;3.85;;;;;;;;;;5076626;28;20067;-42
2022/11/14 19:01:36;;;;;;;7.03;3.72;;;;;;;;;;5058326;28;20036;-42
2022/11/14 19:04:03;;;;;;;6.05;3.95;;;;;;;;;;5082940;28;20036;-42
2022/11/14 19:06:29;;;;;;;5.35;3.67;;;;;;;;;;5079427;28;20043;-41
2022/11/14 19:08:56;;;;;;;5.00;3.75;;;;;;;;;;5073272;28;20119;-42
2022/11/14 19:14:07;;;;;;;8.18;3.55;;;;;;;;;;5080110;28;20031;-41
2022/11/14 19:16:34;;;;;;;3.45;2.75;;;;;;;;;;5058527;28;20028;-42
2022/11/14 19:19:00;;;;;;;4.10;2.85;;;;;;;;;;5081401;28;20039;-41
2022/11/14 19:21:26;;;;;;;3.00;2.40;;;;;;;;;;5071010;28;20097;-42
2022/11/14 19:23:56;;;;;;;3.38;2.75;;;;;;;;;;5084899;28;20513;-42
2022/11/14 19:26:22;;;;;;;3.22;2.35;;;;;;;;;;5072522;28;20105;-42
2022/11/14 19:28:48;;;;;;;2.67;1.88;;;;;;;;;;5073509;28;20458;-41
2022/11/14 19:31:15;;;;;;;2.15;1.70;;;;;;;;;;5074216;28;20059;-42
2022/11/14 19:33:41;;;;;;;1.80;1.65;;;;;;;;;;5054095;28;20024;-42
2022/11/14 19:36:08;;;;;;;1.85;1.65;;;;;;;;;;5075756;28;20032;-42
2022/11/14 19:38:35;;;;;;;1.70;1.58;;;;;;;;;;5077575;28;20020;-41
2022/11/14 19:41:19;;;;;;;2.88;1.92;;;;;;;;;;5074068;28;20099;-41
2022/11/14 19:43:45;;;;;;;2.40;1.60;;;;;;;;;;5079434;28;20086;-41
2022/11/14 19:46:12;;;;;;;1.65;1.55;;;;;;;;;;5074955;28;20024;-41
2022/11/14 19:48:40;;;;;;;2.33;1.70;;;;;;;;;;5070570;28;20095;-41
2022/11/14 19:51:16;;;;;;;2.10;1.58;;;;;;;;;;5078730;28;20052;-41
2022/11/14 19:53:46;;;;;;;2.33;1.50;;;;;;;;;;5067774;28;20035;-42
2022/11/14 19:56:13;;;;;;;1.92;1.60;;;;;;;;;;5071545;28;20029;-42
2022/11/14 19:58:40;;;;;;;2.30;1.90;;;;;;;;;;5059568;28;21075;-42
2022/11/14 20:01:06;;;;;;;2.72;2.28;;;;;;;;;;5076444;28;20024;-42
2022/11/14 20:03:32;;;;;;;2.83;2.03;;;;;;;;;;5081886;28;20099;-42
2022/11/14 20:05:58;;;;;;;2.38;1.95;;;;;;;;;;5082025;28;20402;-42
2022/11/14 20:08:24;;;;;;;2.88;2.20;;;;;;;;;;5076529;28;20024;-42
2022/11/14 20:11:09;;;;;;;2.25;1.90;;;;;;;;;;5077587;28;20032;-42
2022/11/14 20:13:36;;;;;;;2.88;2.00;;;;;;;;;;5078253;28;20251;-42
2022/11/14 20:16:12;;;;;;;3.28;2.30;;;;;;;;;;5081942;28;20035;-42